Time;durP1;ratioP1;P1;durP2;ratioP2;P2;SDS_P1;SDS_P2;PMS_P1;PMS_P2;Temp;Humidity;BMP_temperature;BMP_pressure;BME280_temperature;BME280_humidity;BME280_pressure;Samples;Min_cycle;Max_cycle;Signal;HPM_P1;HPM_P2
2022/08/08 00:02:06;;;;;;;;;;;;;;;;;;5056916;28;19923;-77
2022/08/08 00:04:31;;;;;;;;;;;;;;;;;;5074538;28;20387;-76
2022/08/08 00:06:57;;;;;;;;;;;;;;;;;;5056871;28;19942;-76
2022/08/08 00:09:22;;;;;;;;;;;;;;;;;;5074797;28;19939;-76
2022/08/08 00:11:48;;;;;;;;;;;;;;;;;;5074797;28;19960;-76
2022/08/08 00:14:13;;;;;;;;;;;;;;;;;;5074171;28;20378;-75
2022/08/08 00:16:38;;;;;;;;;;;;;;;;;;5056906;28;19920;-76
2022/08/08 00:19:04;;;;;;;;;;;;;;;;;;5056758;28;19912;-76
2022/08/08 00:21:29;;;;;;;;;;;;;;;;;;5074493;28;19958;-78
2022/08/08 00:23:54;;;;;;;;;;;;;;;;;;5074093;28;20307;-76
2022/08/08 00:26:20;;;;;;;;;;;;;;;;;;5074510;28;19916;-77
2022/08/08 00:28:45;;;;;;;;;;;;;;;;;;5056537;28;20306;-76
2022/08/08 00:31:10;;;;;;;;;;;;;;;;;;5056370;28;20393;-76
2022/08/08 00:33:36;;;;;;;;;;;;;;;;;;5055929;28;20386;-77
2022/08/08 00:36:01;;;;;;;;;;;;;;;;;;5056336;28;20338;-77
2022/08/08 00:38:26;;;;;;;;;;;;;;;;;;5056326;28;19912;-77
2022/08/08 00:40:52;;;;;;;;;;;;;;;;;;5056257;28;19920;-76
2022/08/08 00:43:17;;;;;;;;;;;;;;;;;;5039062;28;19920;-75
2022/08/08 00:45:42;;;;;;;;;;;;;;;;;;5056312;28;19912;-76
2022/08/08 00:48:08;;;;;;;;;;;;;;;;;;5056271;28;19965;-75
2022/08/08 00:50:33;;;;;;;;;;;;;;;;;;5039962;28;20341;-77
2022/08/08 00:52:59;;;;;;;;;;;;;;;;;;5056117;28;19932;-76
2022/08/08 00:55:24;;;;;;;;;;;;;;;;;;5074134;28;19914;-76
2022/08/08 00:57:50;;;;;;;;;;;;;;;;;;5039670;28;19913;-76
2022/08/08 01:00:18;;;;;;;;;;;;;;;;;;5056286;28;19920;-76
2022/08/08 01:02:50;;;;;;;;;;;;;;;;;;5040156;28;19913;-74
2022/08/08 01:05:17;;;;;;;;;;;;;;;;;;5039607;28;19923;-74
2022/08/08 01:07:42;;;;;;;;;;;;;;;;;;5056082;28;20017;-76
2022/08/08 01:10:08;;;;;;;;;;;;;;;;;;5055898;28;19944;-76
2022/08/08 01:12:35;;;;;;;;;;;;;;;;;;5055546;28;19920;-75
2022/08/08 01:15:03;;;;;;;;;;;;;;;;;;5055829;28;20375;-76
2022/08/08 01:17:29;;;;;;;;;;;;;;;;;;5055807;28;19915;-76
2022/08/08 01:19:55;;;;;;;;;;;;;;;;;;5055792;28;20346;-76
2022/08/08 01:22:22;;;;;;;;;;;;;;;;;;5038830;28;19916;-76
2022/08/08 01:24:47;;;;;;;;;;;;;;;;;;5055472;28;20007;-76
2022/08/08 01:27:13;;;;;;;;;;;;;;;;;;5039543;28;20296;-76
2022/08/08 01:29:39;;;;;;;;;;;;;;;;;;5055933;28;20376;-76
2022/08/08 01:32:05;;;;;;;;;;;;;;;;;;5039852;28;19912;-76
2022/08/08 01:34:30;;;;;;;;;;;;;;;;;;5055030;28;19916;-76
2022/08/08 01:36:58;;;;;;;;;;;;;;;;;;5055261;28;19985;-76
2022/08/08 01:39:24;;;;;;;;;;;;;;;;;;5072800;28;19913;-76
2022/08/08 01:41:50;;;;;;;;;;;;;;;;;;5054667;28;19916;-76
2022/08/08 01:44:15;;;;;;;;;;;;;;;;;;5054506;28;19916;-74
2022/08/08 01:46:40;;;;;;;;;;;;;;;;;;5038455;28;19958;-75
2022/08/08 01:49:08;;;;;;;;;;;;;;;;;;5038609;28;19919;-76
2022/08/08 01:51:33;;;;;;;;;;;;;;;;;;5038751;28;19912;-74
2022/08/08 01:54:03;;;;;;;;;;;;;;;;;;5038647;28;19920;-76
2022/08/08 01:56:28;;;;;;;;;;;;;;;;;;5054690;28;19913;-76
2022/08/08 01:58:54;;;;;;;;;;;;;;;;;;5038241;28;19915;-75
2022/08/08 02:01:23;;;;;;;;;;;;;;;;;;5038717;28;19916;-76
2022/08/08 02:03:54;;;;;;;;;;;;;;;;;;5072160;28;20371;-77
2022/08/08 02:06:19;;;;;;;;;;;;;;;;;;5054659;28;19995;-76
2022/08/08 02:08:44;;;;;;;;;;;;;;;;;;5054554;28;19935;-76
2022/08/08 02:11:10;;;;;;;;;;;;;;;;;;5054574;28;19913;-76
2022/08/08 02:13:36;;;;;;;;;;;;;;;;;;5054048;28;20007;-76
2022/08/08 02:16:01;;;;;;;;;;;;;;;;;;5038069;28;19952;-76
2022/08/08 02:18:27;;;;;;;;;;;;;;;;;;5072256;28;20406;-76
2022/08/08 02:23:39;;;;;;;;;;;;;;;;;;5071777;28;20368;-77
2022/08/08 02:26:06;;;;;;;;;;;;;;;;;;5037831;28;19963;-76
2022/08/08 02:28:32;;;;;;;;;;;;;;;;;;5054271;28;20026;-76
2022/08/08 02:30:58;;;;;;;;;;;;;;;;;;5054272;28;19913;-76
2022/08/08 02:33:23;;;;;;;;;;;;;;;;;;5053768;28;19912;-77
2022/08/08 02:35:52;;;;;;;;;;;;;;;;;;5054040;28;20383;-76
2022/08/08 02:38:18;;;;;;;;;;;;;;;;;;5037644;28;19913;-74
2022/08/08 02:40:43;;;;;;;;;;;;;;;;;;5072036;28;20406;-77
2022/08/08 02:43:08;;;;;;;;;;;;;;;;;;5053603;28;19916;-76
2022/08/08 02:45:34;;;;;;;;;;;;;;;;;;5037646;28;20363;-75
2022/08/08 02:47:59;;;;;;;;;;;;;;;;;;5071835;28;19908;-76
2022/08/08 02:50:27;;;;;;;;;;;;;;;;;;5054025;28;19916;-76
2022/08/08 02:52:53;;;;;;;;;;;;;;;;;;5036893;28;19916;-75
2022/08/08 02:55:21;;;;;;;;;;;;;;;;;;5025122;28;19916;-75
2022/08/08 02:57:47;;;;;;;;;;;;;;;;;;5058019;28;19913;-75
2022/08/08 03:00:14;;;;;;;;;;;;;;;;;;5058025;28;20309;-76
2022/08/08 03:02:41;;;;;;;;;;;;;;;;;;5041211;28;19920;-76
2022/08/08 03:05:07;;;;;;;;;;;;;;;;;;5058088;28;19982;-74
2022/08/08 03:07:32;;;;;;;;;;;;;;;;;;5041532;28;20375;-76
2022/08/08 03:09:58;;;;;;;;;;;;;;;;;;5057952;28;19912;-76
2022/08/08 03:12:23;;;;;;;;;;;;;;;;;;5075512;28;20409;-74
2022/08/08 03:14:50;;;;;;;;;;;;;;;;;;5040876;28;20403;-75
2022/08/08 03:17:16;;;;;;;;;;;;;;;;;;5041201;28;19994;-76
2022/08/08 03:19:41;;;;;;;;;;;;;;;;;;5040938;28;20402;-75
2022/08/08 03:22:07;;;;;;;;;;;;;;;;;;5057674;28;19971;-75
2022/08/08 03:24:33;;;;;;;;;;;;;;;;;;5057323;28;19913;-74
2022/08/08 03:26:59;;;;;;;;;;;;;;;;;;5057445;28;19920;-76
2022/08/08 03:29:25;;;;;;;;;;;;;;;;;;5040921;28;19916;-75
2022/08/08 03:34:35;;;;;;;;;;;;;;;;;;5055487;22;19925;-82
2022/08/08 03:37:01;;;;;;;;;;;;;;;;;;5002394;28;20384;-80
2022/08/08 03:39:27;;;;;;;;;;;;;;;;;;5035854;28;19960;-81
2022/08/08 03:41:54;;;;;;;;;;;;;;;;;;5019171;28;19936;-80
2022/08/08 03:44:19;;;;;;;;;;;;;;;;;;5019585;28;19914;-80
2022/08/08 03:46:45;;;;;;;;;;;;;;;;;;5016283;28;19913;-81
2022/08/08 03:49:14;;;;;;;;;;;;;;;;;;5016019;28;19913;-80
2022/08/08 03:51:39;;;;;;;;;;;;;;;;;;5001561;28;19914;-80
2022/08/08 03:54:05;;;;;;;;;;;;;;;;;;5015798;28;19913;-80
2022/08/08 03:56:30;;;;;;;;;;;;;;;;;;5016825;28;20369;-81
2022/08/08 03:58:55;;;;;;;;;;;;;;;;;;5017228;28;19952;-81
2022/08/08 04:01:21;;;;;;;;;;;;;;;;;;5034568;28;19913;-80
2022/08/08 04:03:46;;;;;;;;;;;;;;;;;;5030925;28;19998;-80
2022/08/08 04:06:11;;;;;;;;;;;;;;;;;;5014416;28;19921;-80
2022/08/08 04:08:37;;;;;;;;;;;;;;;;;;4999231;28;19921;-80
2022/08/08 04:11:14;;;;;;;;;;;;;;;;;;5014395;28;19921;-80
2022/08/08 04:13:40;;;;;;;;;;;;;;;;;;5030441;28;20373;-80
2022/08/08 04:16:05;;;;;;;;;;;;;;;;;;4997771;28;19964;-81
2022/08/08 04:18:39;;;;;;;;;;;;;;;;;;5013857;28;19940;-81
2022/08/08 04:21:04;;;;;;;;;;;;;;;;;;5015010;28;20413;-80
2022/08/08 04:23:30;;;;;;;;;;;;;;;;;;5013048;28;19914;-80
2022/08/08 04:25:55;;;;;;;;;;;;;;;;;;5013497;28;19913;-82
2022/08/08 04:28:20;;;;;;;;;;;;;;;;;;5013657;28;19914;-81
2022/08/08 04:30:46;;;;;;;;;;;;;;;;;;5014698;28;19913;-82
2022/08/08 04:33:11;;;;;;;;;;;;;;;;;;4996901;28;19996;-82
2022/08/08 04:35:37;;;;;;;;;;;;;;;;;;5013147;28;20392;-83
2022/08/08 04:38:03;;;;;;;;;;;;;;;;;;5013136;28;19917;-81
2022/08/08 04:40:37;;;;;;;;;;;;;;;;;;4996912;28;19920;-81
2022/08/08 04:43:02;;;;;;;;;;;;;;;;;;5014250;28;19917;-81
2022/08/08 04:45:32;;;;;;;;;;;;;;;;;;5013068;28;20004;-81
2022/08/08 04:47:59;;;;;;;;;;;;;;;;;;4997292;28;19920;-81
2022/08/08 04:50:24;;;;;;;;;;;;;;;;;;5013336;28;19910;-81
2022/08/08 04:52:50;;;;;;;;;;;;;;;;;;5013897;28;19913;-81
2022/08/08 04:55:16;;;;;;;;;;;;;;;;;;5012891;28;19913;-82
2022/08/08 04:57:42;;;;;;;;;;;;;;;;;;5013110;28;20380;-81
2022/08/08 05:00:08;;;;;;;;;;;;;;;;;;5012905;28;20376;-81
2022/08/08 05:02:33;;;;;;;;;;;;;;;;;;5012359;28;19928;-80
2022/08/08 05:04:59;;;;;;;;;;;;;;;;;;5012911;28;20003;-80
2022/08/08 05:07:24;;;;;;;;;;;;;;;;;;5013264;28;19964;-81
2022/08/08 05:09:50;;;;;;;;;;;;;;;;;;5012837;28;20455;-81
2022/08/08 05:12:15;;;;;;;;;;;;;;;;;;5012518;28;20368;-81
2022/08/08 05:14:40;;;;;;;;;;;;;;;;;;5012300;28;19921;-81
2022/08/08 05:17:07;;;;;;;;;;;;;;;;;;5011715;28;19914;-80
2022/08/08 05:19:34;;;;;;;;;;;;;;;;;;5012436;28;19920;-80
2022/08/08 05:22:00;;;;;;;;;;;;;;;;;;5012266;28;19921;-80
2022/08/08 05:24:26;;;;;;;;;;;;;;;;;;5011852;28;19914;-81
2022/08/08 05:26:51;;;;;;;;;;;;;;;;;;5012107;28;20376;-80
2022/08/08 05:29:17;;;;;;;;;;;;;;;;;;5013522;28;19913;-80
2022/08/08 05:31:42;;;;;;;;;;;;;;;;;;5013362;28;19918;-81
2022/08/08 05:34:08;;;;;;;;;;;;;;;;;;5011487;28;19918;-79
2022/08/08 05:36:33;;;;;;;;;;;;;;;;;;5013217;28;19918;-80
2022/08/08 05:38:59;;;;;;;;;;;;;;;;;;5011861;28;19920;-81
2022/08/08 05:41:24;;;;;;;;;;;;;;;;;;5028125;28;19969;-81
2022/08/08 05:43:51;;;;;;;;;;;;;;;;;;5011625;28;20391;-81
2022/08/08 05:46:17;;;;;;;;;;;;;;;;;;4995736;28;19913;-81
2022/08/08 05:48:42;;;;;;;;;;;;;;;;;;4995703;28;19913;-80
2022/08/08 05:51:11;;;;;;;;;;;;;;;;;;5011733;28;19997;-80
2022/08/08 05:53:36;;;;;;;;;;;;;;;;;;5011328;28;20004;-80
2022/08/08 05:56:02;;;;;;;;;;;;;;;;;;5027989;28;19975;-81
2022/08/08 05:58:27;;;;;;;;;;;;;;;;;;5011695;28;20018;-81
2022/08/08 06:00:53;;;;;;;;;;;;;;;;;;5012173;28;19918;-81
2022/08/08 06:03:19;;;;;;;;;;;;;;;;;;5012623;28;19952;-80
2022/08/08 06:05:49;;;;;;;;;;;;;;;;;;5011281;28;19913;-81
2022/08/08 06:08:16;;;;;;;;;;;;;;;;;;5011888;28;20555;-80
2022/08/08 06:10:41;;;;;;;;;;;;;;;;;;5011559;28;20000;-79
2022/08/08 06:13:09;;;;;;;;;;;;;;;;;;4995024;28;19940;-81
2022/08/08 06:15:36;;;;;;;;;;;;;;;;;;5011562;28;20089;-81
2022/08/08 06:18:01;;;;;;;;;;;;;;;;;;5012881;28;19914;-79
2022/08/08 06:20:26;;;;;;;;;;;;;;;;;;5011668;28;20008;-81
2022/08/08 06:22:52;;;;;;;;;;;;;;;;;;4994916;28;19921;-81
2022/08/08 06:25:20;;;;;;;;;;;;;;;;;;5011563;28;19913;-80
2022/08/08 06:27:46;;;;;;;;;;;;;;;;;;5011682;28;20279;-81
2022/08/08 06:30:14;;;;;;;;;;;;;;;;;;5027849;28;20257;-81
2022/08/08 06:32:41;;;;;;;;;;;;;;;;;;5011184;28;20219;-80
2022/08/08 06:35:09;;;;;;;;;;;;;;;;;;4995267;28;19918;-80
2022/08/08 06:37:37;;;;;;;;;;;;;;;;;;5011252;28;20448;-80
2022/08/08 06:40:02;;;;;;;;;;;;;;;;;;4995558;28;20262;-80
2022/08/08 06:42:28;;;;;;;;;;;;;;;;;;4995417;28;19917;-80
2022/08/08 06:44:55;;;;;;;;;;;;;;;;;;5011980;28;19914;-80
2022/08/08 06:47:20;;;;;;;;;;;;;;;;;;5012288;28;20331;-81
2022/08/08 06:49:46;;;;;;;;;;;;;;;;;;5017971;28;20000;-81
2022/08/08 06:52:11;;;;;;;;;;;;;;;;;;5023943;28;20269;-80
2022/08/08 06:54:37;;;;;;;;;;;;;;;;;;5015705;28;20350;-81
2022/08/08 06:57:02;;;;;;;;;;;;;;;;;;5014387;28;20110;-80
2022/08/08 06:59:28;;;;;;;;;;;;;;;;;;5014929;28;20304;-80
2022/08/08 07:01:57;;;;;;;;;;;;;;;;;;5012100;28;19914;-80
2022/08/08 07:04:23;;;;;;;;;;;;;;;;;;5011046;28;19935;-81
2022/08/08 07:06:49;;;;;;;;;;;;;;;;;;5011551;28;19952;-81
2022/08/08 07:09:15;;;;;;;;;;;;;;;;;;5011837;28;19909;-79
2022/08/08 07:11:40;;;;;;;;;;;;;;;;;;5013026;28;19996;-80
2022/08/08 07:14:06;;;;;;;;;;;;;;;;;;5013017;28;19955;-80
2022/08/08 07:16:33;;;;;;;;;;;;;;;;;;5012472;28;19921;-79
2022/08/08 07:18:59;;;;;;;;;;;;;;;;;;5028291;28;19920;-81
2022/08/08 07:21:27;;;;;;;;;;;;;;;;;;5010689;28;19928;-80
2022/08/08 07:23:55;;;;;;;;;;;;;;;;;;5010284;28;19981;-80
2022/08/08 07:26:21;;;;;;;;;;;;;;;;;;5010544;28;19956;-81
2022/08/08 07:28:46;;;;;;;;;;;;;;;;;;5010905;28;19914;-79
2022/08/08 07:31:12;;;;;;;;;;;;;;;;;;5011776;28;19914;-81
2022/08/08 07:33:37;;;;;;;;;;;;;;;;;;5011159;28;19914;-79
2022/08/08 07:36:06;;;;;;;;;;;;;;;;;;5010514;28;19921;-80
2022/08/08 07:38:31;;;;;;;;;;;;;;;;;;5012354;28;19945;-80
2022/08/08 07:41:01;;;;;;;;;;;;;;;;;;5013462;28;19913;-80
2022/08/08 07:43:29;;;;;;;;;;;;;;;;;;5013542;28;19917;-82
2022/08/08 07:45:54;;;;;;;;;;;;;;;;;;5015451;28;19983;-81
2022/08/08 07:48:20;;;;;;;;;;;;;;;;;;5014428;28;19944;-80
2022/08/08 07:50:45;;;;;;;;;;;;;;;;;;5013743;28;19913;-81
2022/08/08 07:53:12;;;;;;;;;;;;;;;;;;4997709;28;20008;-81
2022/08/08 07:55:38;;;;;;;;;;;;;;;;;;5013970;28;19960;-82
2022/08/08 07:58:04;;;;;;;;;;;;;;;;;;5014625;28;19968;-81
2022/08/08 08:00:30;;;;;;;;;;;;;;;;;;5014407;28;19960;-81
2022/08/08 08:03:03;;;;;;;;;;;;;;;;;;5013509;28;20020;-81
2022/08/08 08:05:29;;;;;;;;;;;;;;;;;;4997621;28;19960;-81
2022/08/08 08:07:55;;;;;;;;;;;;;;;;;;4997511;28;19981;-81
2022/08/08 08:10:26;;;;;;;;;;;;;;;;;;4997954;28;20008;-80
2022/08/08 08:12:52;;;;;;;;;;;;;;;;;;4996761;28;20012;-81
2022/08/08 08:15:18;;;;;;;;;;;;;;;;;;4997564;28;19914;-81
2022/08/08 08:17:44;;;;;;;;;;;;;;;;;;4997288;28;19913;-81
2022/08/08 08:20:10;;;;;;;;;;;;;;;;;;4996852;28;20249;-81
2022/08/08 08:22:36;;;;;;;;;;;;;;;;;;5012669;28;19924;-80
2022/08/08 08:25:04;;;;;;;;;;;;;;;;;;5013418;28;19914;-80
2022/08/08 08:27:29;;;;;;;;;;;;;;;;;;5018689;28;20000;-81
2022/08/08 08:29:55;;;;;;;;;;;;;;;;;;5022336;28;19971;-80
2022/08/08 08:32:21;;;;;;;;;;;;;;;;;;5005856;28;19920;-80
2022/08/08 08:34:48;;;;;;;;;;;;;;;;;;5021131;28;19944;-81
2022/08/08 08:37:13;;;;;;;;;;;;;;;;;;5020351;28;19918;-80
2022/08/08 08:39:39;;;;;;;;;;;;;;;;;;5016649;28;19920;-80
2022/08/08 08:42:05;;;;;;;;;;;;;;;;;;5014320;28;20377;-80
2022/08/08 08:44:30;;;;;;;;;;;;;;;;;;5012943;28;20392;-81
2022/08/08 08:46:57;;;;;;;;;;;;;;;;;;5014687;28;19917;-80
2022/08/08 08:49:23;;;;;;;;;;;;;;;;;;5013260;28;19913;-81
2022/08/08 08:51:49;;;;;;;;;;;;;;;;;;4995802;28;19921;-80
2022/08/08 08:54:15;;;;;;;;;;;;;;;;;;4996584;28;19917;-80
2022/08/08 08:56:40;;;;;;;;;;;;;;;;;;5029739;28;19956;-81
2022/08/08 08:59:12;;;;;;;;;;;;;;;;;;5013265;28;19914;-80
2022/08/08 09:01:39;;;;;;;;;;;;;;;;;;5013000;28;19913;-82
2022/08/08 09:04:05;;;;;;;;;;;;;;;;;;5012874;28;19924;-80
2022/08/08 09:06:32;;;;;;;;;;;;;;;;;;5012786;28;19910;-79
2022/08/08 09:08:57;;;;;;;;;;;;;;;;;;5012963;28;20368;-80
2022/08/08 09:11:23;;;;;;;;;;;;;;;;;;5014168;28;20373;-80
2022/08/08 09:13:48;;;;;;;;;;;;;;;;;;5013947;28;20008;-81
2022/08/08 09:16:14;;;;;;;;;;;;;;;;;;5012720;28;19921;-81
2022/08/08 09:18:43;;;;;;;;;;;;;;;;;;5012983;28;19913;-80
2022/08/08 09:21:09;;;;;;;;;;;;;;;;;;5014646;28;19984;-81
2022/08/08 09:23:34;;;;;;;;;;;;;;;;;;5012064;28;19996;-80
2022/08/08 09:26:00;;;;;;;;;;;;;;;;;;5029062;28;20341;-81
2022/08/08 09:28:26;;;;;;;;;;;;;;;;;;4996437;28;19914;-81
2022/08/08 09:30:51;;;;;;;;;;;;;;;;;;5012969;28;20484;-81
2022/08/08 09:33:17;;;;;;;;;;;;;;;;;;5012730;28;19972;-79
2022/08/08 09:35:42;;;;;;;;;;;;;;;;;;5012473;28;20288;-82
2022/08/08 09:38:08;;;;;;;;;;;;;;;;;;5012055;28;19964;-80
2022/08/08 09:40:35;;;;;;;;;;;;;;;;;;5012079;28;20480;-80
2022/08/08 09:43:01;;;;;;;;;;;;;;;;;;5011746;28;19917;-80
2022/08/08 09:45:26;;;;;;;;;;;;;;;;;;4995829;28;19913;-80
2022/08/08 09:47:51;;;;;;;;;;;;;;;;;;5013177;28;19913;-81
2022/08/08 09:50:17;;;;;;;;;;;;;;;;;;5028465;28;20397;-80
2022/08/08 09:52:42;;;;;;;;;;;;;;;;;;5011499;28;19979;-81
2022/08/08 09:55:08;;;;;;;;;;;;;;;;;;5011912;28;19920;-81
2022/08/08 09:57:33;;;;;;;;;;;;;;;;;;5028376;28;19914;-80
2022/08/08 09:59:58;;;;;;;;;;;;;;;;;;5013320;28;20011;-80
2022/08/08 10:02:25;;;;;;;;;;;;;;;;;;5011116;28;20004;-81
2022/08/08 10:04:51;;;;;;;;;;;;;;;;;;5011464;28;20296;-81
2022/08/08 10:07:16;;;;;;;;;;;;;;;;;;5013087;28;19914;-80
2022/08/08 10:09:42;;;;;;;;;;;;;;;;;;5028022;28;19988;-81
2022/08/08 10:12:07;;;;;;;;;;;;;;;;;;4995001;28;20427;-81
2022/08/08 10:14:33;;;;;;;;;;;;;;;;;;5027679;28;19917;-79
2022/08/08 10:16:58;;;;;;;;;;;;;;;;;;5012794;28;20386;-80
2022/08/08 10:19:23;;;;;;;;;;;;;;;;;;5012796;28;20352;-81
2022/08/08 10:21:49;;;;;;;;;;;;;;;;;;5012629;28;20296;-79
2022/08/08 10:24:15;;;;;;;;;;;;;;;;;;5010456;28;19917;-80
2022/08/08 10:26:40;;;;;;;;;;;;;;;;;;5011685;28;19913;-80
2022/08/08 10:29:06;;;;;;;;;;;;;;;;;;5027495;28;19913;-81
2022/08/08 10:34:15;;;;;;;;;;;;;;;;;;5012123;28;20072;-79
2022/08/08 10:36:41;;;;;;;;;;;;;;;;;;5012447;28;19925;-80
2022/08/08 10:39:06;;;;;;;;;;;;;;;;;;5027843;28;20281;-81
2022/08/08 10:41:31;;;;;;;;;;;;;;;;;;5011688;28;19968;-81
2022/08/08 10:43:57;;;;;;;;;;;;;;;;;;5026969;28;20119;-80
2022/08/08 10:46:25;;;;;;;;;;;;;;;;;;5012465;28;20392;-80
2022/08/08 10:48:50;;;;;;;;;;;;;;;;;;5027362;28;19913;-80
2022/08/08 10:51:16;;;;;;;;;;;;;;;;;;5010890;28;20357;-79
2022/08/08 10:53:41;;;;;;;;;;;;;;;;;;5011757;28;19916;-80
2022/08/08 10:56:09;;;;;;;;;;;;;;;;;;5012172;28;20300;-78
2022/08/08 10:58:34;;;;;;;;;;;;;;;;;;5012114;28;19921;-80
2022/08/08 11:00:59;;;;;;;;;;;;;;;;;;5011941;28;19920;-80
2022/08/08 11:03:27;;;;;;;;;;;;;;;;;;5026675;28;19925;-80
2022/08/08 11:05:52;;;;;;;;;;;;;;;;;;5027223;28;19913;-80
2022/08/08 11:08:17;;;;;;;;;;;;;;;;;;5010704;28;19913;-80
2022/08/08 11:10:43;;;;;;;;;;;;;;;;;;5012028;28;19940;-80
2022/08/08 11:13:08;;;;;;;;;;;;;;;;;;5011647;28;20290;-79
2022/08/08 11:15:34;;;;;;;;;;;;;;;;;;5013423;28;19913;-80
2022/08/08 11:17:59;;;;;;;;;;;;;;;;;;5015846;28;19963;-81
2022/08/08 11:20:24;;;;;;;;;;;;;;;;;;5015761;28;19972;-79
2022/08/08 11:22:50;;;;;;;;;;;;;;;;;;5014151;28;19933;-80
2022/08/08 11:25:15;;;;;;;;;;;;;;;;;;5031308;28;19914;-79
2022/08/08 11:27:41;;;;;;;;;;;;;;;;;;5016004;28;19917;-79
2022/08/08 11:30:06;;;;;;;;;;;;;;;;;;5015685;28;20055;-80
2022/08/08 11:32:31;;;;;;;;;;;;;;;;;;5015426;28;20031;-80
2022/08/08 11:34:57;;;;;;;;;;;;;;;;;;5015420;28;19918;-79
2022/08/08 11:37:23;;;;;;;;;;;;;;;;;;5031137;28;20045;-80
2022/08/08 11:39:48;;;;;;;;;;;;;;;;;;5014350;28;20369;-80
2022/08/08 11:42:16;;;;;;;;;;;;;;;;;;5014128;28;20341;-80
2022/08/08 11:44:42;;;;;;;;;;;;;;;;;;5014072;28;19913;-80
2022/08/08 11:47:07;;;;;;;;;;;;;;;;;;5015119;28;19921;-80
2022/08/08 11:49:33;;;;;;;;;;;;;;;;;;5014440;28;19917;-80
2022/08/08 11:51:58;;;;;;;;;;;;;;;;;;5015511;28;19909;-80
2022/08/08 11:54:23;;;;;;;;;;;;;;;;;;5015237;28;19917;-80
2022/08/08 11:56:49;;;;;;;;;;;;;;;;;;5014373;28;19945;-80
2022/08/08 11:59:14;;;;;;;;;;;;;;;;;;5013754;28;20264;-79
2022/08/08 12:01:39;;;;;;;;;;;;;;;;;;5014910;28;20012;-79
2022/08/08 12:04:05;;;;;;;;;;;;;;;;;;4996534;28;20386;-81
2022/08/08 12:06:33;;;;;;;;;;;;;;;;;;5015080;28;19914;-80
2022/08/08 12:08:59;;;;;;;;;;;;;;;;;;5000852;28;19960;-79
2022/08/08 12:11:27;;;;;;;;;;;;;;;;;;5025031;28;19913;-80
2022/08/08 12:13:52;;;;;;;;;;;;;;;;;;5041067;28;19973;-79
2022/08/08 12:16:18;;;;;;;;;;;;;;;;;;5027487;28;19959;-79
2022/08/08 12:18:43;;;;;;;;;;;;;;;;;;5024200;28;19933;-80
2022/08/08 12:21:09;;;;;;;;;;;;;;;;;;5040322;28;19936;-79
2022/08/08 12:23:34;;;;;;;;;;;;;;;;;;5037844;28;19924;-79
2022/08/08 12:25:59;;;;;;;;;;;;;;;;;;5018393;28;20242;-80
2022/08/08 12:28:25;;;;;;;;;;;;;;;;;;5015827;28;19994;-79
2022/08/08 12:30:50;;;;;;;;;;;;;;;;;;4997317;28;19933;-79
2022/08/08 12:33:16;;;;;;;;;;;;;;;;;;5014275;28;19913;-81
2022/08/08 12:35:42;;;;;;;;;;;;;;;;;;5013606;28;19918;-80
2022/08/08 12:38:07;;;;;;;;;;;;;;;;;;5017774;28;19932;-80
2022/08/08 12:40:32;;;;;;;;;;;;;;;;;;5035249;28;19917;-82
2022/08/08 12:42:58;;;;;;;;;;;;;;;;;;5019331;28;19918;-80
2022/08/08 12:45:23;;;;;;;;;;;;;;;;;;5022780;28;19957;-81
2022/08/08 12:47:49;;;;;;;;;;;;;;;;;;5024150;28;19914;-80
2022/08/08 12:50:14;;;;;;;;;;;;;;;;;;5025201;28;19920;-81
2022/08/08 12:52:41;;;;;;;;;;;;;;;;;;5021757;28;19913;-80
2022/08/08 12:55:06;;;;;;;;;;;;;;;;;;5024751;28;20069;-81
2022/08/08 12:57:31;;;;;;;;;;;;;;;;;;5023582;28;19918;-79
2022/08/08 12:59:57;;;;;;;;;;;;;;;;;;5018967;28;20013;-81
2022/08/08 13:02:26;;;;;;;;;;;;;;;;;;5017811;28;19924;-80
2022/08/08 13:04:51;;;;;;;;;;;;;;;;;;5017657;28;19917;-80
2022/08/08 13:07:16;;;;;;;;;;;;;;;;;;5017843;28;19913;-80
2022/08/08 13:09:42;;;;;;;;;;;;;;;;;;5031611;28;19920;-80
2022/08/08 13:12:07;;;;;;;;;;;;;;;;;;5016069;28;20246;-79
2022/08/08 13:14:33;;;;;;;;;;;;;;;;;;5014920;28;19921;-80
2022/08/08 13:16:58;;;;;;;;;;;;;;;;;;5014121;28;19917;-81
2022/08/08 13:19:23;;;;;;;;;;;;;;;;;;4997503;28;19914;-81
2022/08/08 13:21:49;;;;;;;;;;;;;;;;;;5030190;28;20005;-80
2022/08/08 13:24:14;;;;;;;;;;;;;;;;;;5013244;28;20294;-79
2022/08/08 13:26:40;;;;;;;;;;;;;;;;;;5014198;28;19921;-79
2022/08/08 13:29:05;;;;;;;;;;;;;;;;;;5029104;28;19913;-80
2022/08/08 13:31:30;;;;;;;;;;;;;;;;;;5012562;28;19921;-80
2022/08/08 13:33:56;;;;;;;;;;;;;;;;;;5011744;28;19936;-81
2022/08/08 13:36:21;;;;;;;;;;;;;;;;;;5030136;28;19921;-79
2022/08/08 13:38:46;;;;;;;;;;;;;;;;;;5012721;28;20384;-80
2022/08/08 13:41:12;;;;;;;;;;;;;;;;;;5014357;28;20265;-81
2022/08/08 13:43:37;;;;;;;;;;;;;;;;;;5014576;28;19917;-79
2022/08/08 13:46:03;;;;;;;;;;;;;;;;;;5030242;28;19914;-81
2022/08/08 13:48:28;;;;;;;;;;;;;;;;;;5012689;28;20403;-79
2022/08/08 13:50:53;;;;;;;;;;;;;;;;;;5028490;28;20276;-79
2022/08/08 13:53:19;;;;;;;;;;;;;;;;;;4995659;28;19968;-79
2022/08/08 13:55:44;;;;;;;;;;;;;;;;;;5011859;28;19920;-79
2022/08/08 13:58:09;;;;;;;;;;;;;;;;;;5012595;28;19910;-81
2022/08/08 14:00:35;;;;;;;;;;;;;;;;;;5018109;28;19914;-80
2022/08/08 14:03:00;;;;;;;;;;;;;;;;;;5011705;28;20357;-80
2022/08/08 14:05:26;;;;;;;;;;;;;;;;;;5011558;28;20325;-80
2022/08/08 14:07:51;;;;;;;;;;;;;;;;;;5029100;28;19920;-79
2022/08/08 14:10:20;;;;;;;;;;;;;;;;;;5012830;28;19921;-80
2022/08/08 14:12:45;;;;;;;;;;;;;;;;;;4995007;28;19918;-80
2022/08/08 14:15:11;;;;;;;;;;;;;;;;;;5012814;28;20439;-77
2022/08/08 14:17:36;;;;;;;;;;;;;;;;;;5012902;28;19924;-80
2022/08/08 14:20:01;;;;;;;;;;;;;;;;;;5014882;28;20507;-81
2022/08/08 14:22:27;;;;;;;;;;;;;;;;;;5012280;28;19971;-80
2022/08/08 14:24:53;;;;;;;;;;;;;;;;;;5012601;28;19914;-80
2022/08/08 14:27:18;;;;;;;;;;;;;;;;;;4996109;28;20284;-80
2022/08/08 14:29:43;;;;;;;;;;;;;;;;;;5011255;28;20023;-80
2022/08/08 14:32:09;;;;;;;;;;;;;;;;;;5011736;28;19913;-80
2022/08/08 14:34:34;;;;;;;;;;;;;;;;;;5012195;28;19917;-81
2022/08/08 14:37:00;;;;;;;;;;;;;;;;;;5013523;28;20388;-80
2022/08/08 14:39:25;;;;;;;;;;;;;;;;;;4994628;28;19910;-79
2022/08/08 14:41:50;;;;;;;;;;;;;;;;;;5012506;28;20005;-79
2022/08/08 14:44:16;;;;;;;;;;;;;;;;;;5012802;28;19917;-80
2022/08/08 14:46:41;;;;;;;;;;;;;;;;;;5011994;28;20304;-81
2022/08/08 14:49:07;;;;;;;;;;;;;;;;;;5011191;28;20254;-80
2022/08/08 14:51:32;;;;;;;;;;;;;;;;;;5011095;28;19968;-81
2022/08/08 14:54:00;;;;;;;;;;;;;;;;;;5011928;28;19951;-81
2022/08/08 14:56:25;;;;;;;;;;;;;;;;;;5011491;28;19914;-81
2022/08/08 14:58:51;;;;;;;;;;;;;;;;;;5013927;28;20017;-81
2022/08/08 15:01:18;;;;;;;;;;;;;;;;;;5011670;28;20432;-80
2022/08/08 15:03:44;;;;;;;;;;;;;;;;;;4994604;28;19921;-81
2022/08/08 15:06:09;;;;;;;;;;;;;;;;;;4996265;28;20208;-81
2022/08/08 15:08:36;;;;;;;;;;;;;;;;;;5013836;28;19921;-80
2022/08/08 15:11:01;;;;;;;;;;;;;;;;;;5013111;28;19914;-80
2022/08/08 15:13:26;;;;;;;;;;;;;;;;;;4994704;28;19910;-80
2022/08/08 15:15:52;;;;;;;;;;;;;;;;;;5011208;28;19913;-79
2022/08/08 15:18:17;;;;;;;;;;;;;;;;;;5028033;28;19913;-80
2022/08/08 15:20:43;;;;;;;;;;;;;;;;;;5027491;28;19913;-81
2022/08/08 15:23:08;;;;;;;;;;;;;;;;;;5010743;28;19924;-80
2022/08/08 15:25:34;;;;;;;;;;;;;;;;;;5012169;28;20020;-80
2022/08/08 15:28:00;;;;;;;;;;;;;;;;;;5011523;28;19913;-80
2022/08/08 15:30:25;;;;;;;;;;;;;;;;;;5011141;28;19925;-80
2022/08/08 15:32:51;;;;;;;;;;;;;;;;;;5010607;28;19917;-79
2022/08/08 15:35:16;;;;;;;;;;;;;;;;;;5010717;28;20436;-78
2022/08/08 15:37:42;;;;;;;;;;;;;;;;;;5026888;28;19960;-79
2022/08/08 15:40:07;;;;;;;;;;;;;;;;;;5010596;28;20056;-79
2022/08/08 15:42:33;;;;;;;;;;;;;;;;;;4993670;28;20404;-80
2022/08/08 15:44:58;;;;;;;;;;;;;;;;;;5010461;28;20487;-79
2022/08/08 15:47:24;;;;;;;;;;;;;;;;;;5013865;28;19941;-79
2022/08/08 15:49:49;;;;;;;;;;;;;;;;;;5013145;28;20004;-79
2022/08/08 15:52:14;;;;;;;;;;;;;;;;;;5013129;28;19945;-79
2022/08/08 15:54:40;;;;;;;;;;;;;;;;;;5011043;28;19925;-79
2022/08/08 15:57:05;;;;;;;;;;;;;;;;;;5011112;28;20008;-80
2022/08/08 15:59:31;;;;;;;;;;;;;;;;;;5012597;28;19979;-80
2022/08/08 16:01:56;;;;;;;;;;;;;;;;;;5015796;28;20364;-79
2022/08/08 16:04:21;;;;;;;;;;;;;;;;;;5016342;28;20328;-80
2022/08/08 16:06:47;;;;;;;;;;;;;;;;;;5015270;28;20389;-79
2022/08/08 16:09:12;;;;;;;;;;;;;;;;;;5015527;28;19917;-79
2022/08/08 16:11:37;;;;;;;;;;;;;;;;;;5030080;28;19913;-80
2022/08/08 16:14:03;;;;;;;;;;;;;;;;;;5014320;28;19960;-80
2022/08/08 16:16:28;;;;;;;;;;;;;;;;;;5014910;28;20347;-80
2022/08/08 16:18:54;;;;;;;;;;;;;;;;;;5014814;28;19917;-79
2022/08/08 16:21:19;;;;;;;;;;;;;;;;;;5013837;28;20312;-79
2022/08/08 16:23:44;;;;;;;;;;;;;;;;;;5013376;28;19918;-80
2022/08/08 16:26:10;;;;;;;;;;;;;;;;;;5030130;28;19996;-78
2022/08/08 16:28:35;;;;;;;;;;;;;;;;;;5015275;28;20011;-79
2022/08/08 16:31:01;;;;;;;;;;;;;;;;;;5014227;28;19920;-80
2022/08/08 16:33:26;;;;;;;;;;;;;;;;;;5015461;28;19921;-80
2022/08/08 16:35:52;;;;;;;;;;;;;;;;;;5016239;28;19963;-79
2022/08/08 16:38:17;;;;;;;;;;;;;;;;;;5015840;28;19920;-79
2022/08/08 16:40:42;;;;;;;;;;;;;;;;;;5031745;28;20008;-79
2022/08/08 16:43:08;;;;;;;;;;;;;;;;;;5015591;28;19925;-80
2022/08/08 16:45:33;;;;;;;;;;;;;;;;;;5014738;28;19914;-80